Time;durP1;ratioP1;P1;durP2;ratioP2;P2;SDS_P1;SDS_P2;PMS_P1;PMS_P2;Temp;Humidity;BMP_temperature;BMP_pressure;BME280_temperature;BME280_humidity;BME280_pressure;Samples;Min_cycle;Max_cycle;Signal;HPM_P1;HPM_P2
2021/11/08 00:01:11;;;;;;;4.07;1.20;;;4.90;96.30;;;;;;5031446;28;20403;-76
2021/11/08 00:03:39;;;;;;;8.40;1.93;;;4.90;96.30;;;;;;5030434;28;20419;-76
2021/11/08 00:06:05;;;;;;;12.53;2.30;;;4.90;96.30;;;;;;5031817;28;20417;-76
2021/11/08 00:08:32;;;;;;;6.93;1.90;;;4.90;96.30;;;;;;5030389;28;20430;-76
2021/11/08 00:10:58;;;;;;;5.87;1.20;;;4.80;96.30;;;;;;5031363;28;20406;-76
2021/11/08 00:13:24;;;;;;;9.50;1.57;;;4.90;96.30;;;;;;5032035;28;20413;-77
2021/11/08 00:16:09;;;;;;;6.73;1.60;;;4.90;96.30;;;;;;5030486;28;20173;-75
2021/11/08 00:21:20;;;;;;;6.97;1.60;;;4.80;96.30;;;;;;5031517;28;20897;-75
2021/11/08 00:23:46;;;;;;;6.93;2.23;;;4.80;96.30;;;;;;5031669;28;20414;-75
2021/11/08 00:26:12;;;;;;;8.13;2.17;;;4.80;96.30;;;;;;5031602;28;20407;-76
2021/11/08 00:28:37;;;;;;;6.13;1.70;;;4.80;96.30;;;;;;5032824;28;20564;-75
2021/11/08 00:31:03;;;;;;;5.17;1.57;;;4.80;96.30;;;;;;5033826;28;20226;-75
2021/11/08 00:33:28;;;;;;;8.63;1.80;;;4.90;96.30;;;;;;5035267;28;20187;-75
2021/11/08 00:35:59;;;;;;;7.63;1.93;;;4.90;96.30;;;;;;5035249;28;20185;-75
2021/11/08 00:38:25;;;;;;;10.30;1.67;;;4.90;96.30;;;;;;5034931;28;20212;-75
2021/11/08 00:40:51;;;;;;;6.37;1.53;;;4.90;96.30;;;;;;5035203;28;20411;-75
2021/11/08 00:43:18;;;;;;;5.70;1.67;;;4.90;96.30;;;;;;5034372;28;20822;-75
2021/11/08 00:45:44;;;;;;;12.13;2.23;;;4.90;96.30;;;;;;5033866;28;20415;-74
2021/11/08 00:48:13;;;;;;;5.77;1.83;;;4.90;96.30;;;;;;5034988;28;20423;-75
2021/11/08 00:50:39;;;;;;;6.27;1.60;;;4.90;96.30;;;;;;5034934;28;20407;-76
2021/11/08 00:53:05;;;;;;;9.47;2.17;;;4.90;96.30;;;;;;5034347;28;20502;-76
2021/11/08 00:55:32;;;;;;;11.20;2.13;;;4.90;96.30;;;;;;5033631;28;20650;-76
2021/11/08 00:57:59;;;;;;;9.60;1.70;;;4.90;96.30;;;;;;5034787;28;20512;-76
2021/11/08 05:30:36;;;;;;;6.33;2.30;;;4.50;96.30;;;;;;4975817;28;20524;-76
2021/11/08 05:33:02;;;;;;;11.00;2.70;;;4.50;96.30;;;;;;4974908;28;20505;-76
2021/11/08 05:35:29;;;;;;;7.60;1.73;;;4.50;96.30;;;;;;4975315;28;20178;-77
2021/11/08 05:37:55;;;;;;;12.40;2.00;;;4.50;96.30;;;;;;4958044;28;20509;-76
2021/11/08 05:40:31;;;;;;;10.37;1.93;;;4.40;96.30;;;;;;4975233;28;20535;-77
2021/11/08 05:43:00;;;;;;;8.67;1.97;;;4.40;96.30;;;;;;4978908;28;20795;-75
2021/11/08 05:45:31;;;;;;;14.97;2.00;;;4.40;96.30;;;;;;4977130;28;20477;-75
2021/11/08 05:47:57;;;;;;;12.00;2.20;;;4.40;96.30;;;;;;4977138;28;20411;-76
2021/11/08 05:50:23;;;;;;;10.97;2.10;;;4.40;96.30;;;;;;4976771;28;20448;-75
2021/11/08 05:52:52;;;;;;;5.77;1.90;;;4.40;96.30;;;;;;4994029;28;20413;-76
2021/11/08 05:55:19;;;;;;;15.80;2.67;;;4.40;96.30;;;;;;4994492;28;20166;-76
2021/11/08 05:57:53;;;;;;;9.60;2.63;;;4.40;96.30;;;;;;4994461;28;20499;-75
2021/11/08 06:49:41;;;;;;;9.80;3.07;;;4.40;96.30;;;;;;4973811;28;20413;-75
2021/11/08 06:52:08;;;;;;;11.80;2.33;;;4.40;96.30;;;;;;4955729;28;20441;-75
2021/11/08 06:54:33;;;;;;;20.40;3.20;;;4.50;96.30;;;;;;4973660;28;20433;-76
2021/11/08 06:57:05;;;;;;;7.13;2.30;;;4.50;96.30;;;;;;4956493;28;20413;-76
2021/11/08 06:59:31;;;;;;;6.33;1.80;;;4.50;96.30;;;;;;4973900;28;20190;-76
2021/11/08 07:01:57;;;;;;;3.83;2.10;;;4.50;96.30;;;;;;4973031;28;21108;-76
2021/11/08 07:04:24;;;;;;;13.93;2.30;;;4.60;96.30;;;;;;4973875;28;20545;-76
2021/11/08 07:06:50;;;;;;;7.83;2.23;;;4.60;96.30;;;;;;4973850;28;20178;-76
2021/11/08 07:09:16;;;;;;;9.30;2.43;;;4.60;96.30;;;;;;4973719;28;20414;-76
2021/11/08 07:11:45;;;;;;;14.73;2.33;;;4.60;96.30;;;;;;4972725;28;20541;-77
2021/11/08 07:14:12;;;;;;;8.13;2.17;;;4.60;96.30;;;;;;4973621;28;20418;-76
2021/11/08 07:16:38;;;;;;;11.60;2.30;;;4.60;96.30;;;;;;4973695;28;20449;-76
2021/11/08 07:19:07;;;;;;;5.93;1.67;;;4.60;96.30;;;;;;4973539;28;20457;-76
2021/11/08 07:21:33;;;;;;;9.93;2.30;;;4.70;96.30;;;;;;4955555;28;20437;-77
2021/11/08 07:23:59;;;;;;;10.60;3.40;;;4.70;96.30;;;;;;4973490;28;20420;-77
2021/11/08 07:26:25;;;;;;;10.93;2.47;;;4.70;96.30;;;;;;4973538;28;20488;-79
2021/11/08 07:28:50;;;;;;;14.17;2.53;;;4.80;96.30;;;;;;4973560;28;20245;-76
2021/11/08 07:31:16;;;;;;;6.20;2.00;;;4.80;96.30;;;;;;4972797;28;20268;-76
2021/11/08 07:33:42;;;;;;;5.13;1.87;;;4.80;96.30;;;;;;4973435;28;20170;-76
2021/11/08 07:36:08;;;;;;;10.70;2.07;;;4.90;96.30;;;;;;4973059;28;20428;-77
2021/11/08 07:38:35;;;;;;;7.63;1.87;;;4.90;96.30;;;;;;4955865;28;20182;-77
2021/11/08 07:41:02;;;;;;;10.60;2.17;;;5.00;96.30;;;;;;4955421;28;20464;-76
2021/11/08 07:43:27;;;;;;;8.77;2.20;;;5.10;96.30;;;;;;4955566;28;20453;-77
2021/11/08 07:45:53;;;;;;;11.43;2.27;;;5.10;96.30;;;;;;4956016;28;20452;-76
2021/11/08 07:48:20;;;;;;;7.10;2.77;;;5.20;96.30;;;;;;4973251;28;20506;-75
2021/11/08 07:50:47;;;;;;;11.53;3.07;;;5.20;96.30;;;;;;4973290;28;20517;-76
2021/11/08 07:53:14;;;;;;;9.83;2.40;;;5.20;96.30;;;;;;4972728;28;20406;-76
2021/11/08 07:55:39;;;;;;;9.10;2.30;;;5.30;96.30;;;;;;4955870;28;20410;-76
2021/11/08 07:58:05;;;;;;;10.97;2.83;;;5.40;96.30;;;;;;4973072;28;20432;-76
2021/11/08 08:00:40;;;;;;;7.70;2.10;;;5.40;96.30;;;;;;4972856;28;20200;-76
2021/11/08 08:03:05;;;;;;;13.07;2.27;;;5.40;96.30;;;;;;4972571;28;20220;-76
2021/11/08 08:05:32;;;;;;;17.37;2.20;;;5.40;96.30;;;;;;4973078;28;20445;-76
2021/11/08 08:07:58;;;;;;;17.83;2.77;;;5.40;96.30;;;;;;4973057;28;20221;-78
2021/11/08 08:10:24;;;;;;;10.90;2.93;;;5.40;96.30;;;;;;4972977;28;20413;-76
2021/11/08 08:12:49;;;;;;;6.60;2.30;;;5.50;96.30;;;;;;4972488;28;20182;-76
2021/11/08 08:15:15;;;;;;;13.23;2.17;;;5.50;96.30;;;;;;4972974;28;20545;-76
2021/11/08 08:17:41;;;;;;;6.50;2.63;;;5.60;96.30;;;;;;4972912;28;20333;-76
2021/11/08 08:20:15;;;;;;;10.30;1.90;;;5.60;96.30;;;;;;4972645;28;21044;-76
2021/11/08 08:22:40;;;;;;;13.73;3.00;;;5.60;96.30;;;;;;4972513;28;20182;-77
2021/11/08 08:25:06;;;;;;;10.17;2.03;;;5.70;96.30;;;;;;4972949;28;20799;-75
2021/11/08 08:27:32;;;;;;;7.50;2.10;;;5.60;96.30;;;;;;4972934;28;20198;-76
2021/11/08 08:29:57;;;;;;;7.70;2.00;;;5.70;96.30;;;;;;4955517;28;20261;-76
2021/11/08 08:32:23;;;;;;;14.00;2.80;;;5.70;96.30;;;;;;4972277;28;20682;-76
2021/11/08 08:34:49;;;;;;;8.27;2.33;;;5.80;96.30;;;;;;4972938;28;20225;-75
2021/11/08 08:37:15;;;;;;;5.57;1.90;;;5.80;96.30;;;;;;4972847;28;20177;-75
2021/11/08 08:39:41;;;;;;;4.33;1.70;;;5.90;96.30;;;;;;4972803;28;20485;-76
2021/11/08 08:42:06;;;;;;;8.23;2.47;;;6.00;96.30;;;;;;4954725;28;20430;-75
2021/11/08 08:44:33;;;;;;;6.43;1.80;;;6.10;96.30;;;;;;4955438;28;20641;-75
2021/11/08 08:46:59;;;;;;;11.40;2.60;;;6.00;96.30;;;;;;4972797;28;20666;-75
2021/11/08 08:49:24;;;;;;;8.23;2.53;;;6.00;96.30;;;;;;4957228;28;20413;-75
2021/11/08 08:51:51;;;;;;;8.63;2.10;;;6.00;96.30;;;;;;4975711;28;20198;-76
2021/11/08 08:54:17;;;;;;;8.00;2.20;;;6.10;96.30;;;;;;4975978;28;20616;-75
2021/11/08 08:56:42;;;;;;;9.00;2.43;;;6.20;96.30;;;;;;4958750;28;20453;-75
2021/11/08 08:59:08;;;;;;;12.10;3.63;;;6.20;96.30;;;;;;4975998;28;20209;-76
2021/11/08 09:01:34;;;;;;;10.17;2.50;;;6.20;96.30;;;;;;4975265;28;20803;-76
2021/11/08 09:03:59;;;;;;;10.47;3.07;;;6.10;96.30;;;;;;4976037;28;20171;-75
2021/11/08 09:06:26;;;;;;;13.03;2.83;;;6.10;96.30;;;;;;4976026;28;20185;-75
2021/11/08 09:08:53;;;;;;;4.67;2.03;;;6.20;96.30;;;;;;4976015;28;20174;-75
2021/11/08 09:11:18;;;;;;;7.90;2.90;;;6.30;96.30;;;;;;4975216;28;20430;-77
2021/11/08 09:13:45;;;;;;;11.00;2.10;;;6.30;96.30;;;;;;4975823;28;20852;-77
2021/11/08 09:16:12;;;;;;;10.40;3.20;;;6.40;96.30;;;;;;4975757;28;20245;-75
2021/11/08 09:18:42;;;;;;;10.07;1.93;;;6.40;96.30;;;;;;4975829;28;20433;-75
2021/11/08 09:21:09;;;;;;;6.40;1.67;;;6.30;96.30;;;;;;4974976;28;20441;-76
2021/11/08 09:23:34;;;;;;;8.63;1.60;;;6.50;96.30;;;;;;4975732;28;20440;-78
2021/11/08 09:26:00;;;;;;;7.00;3.03;;;6.70;96.30;;;;;;4958316;28;20402;-75
2021/11/08 09:28:26;;;;;;;8.97;2.13;;;6.70;96.30;;;;;;4975775;28;20173;-75
2021/11/08 09:30:52;;;;;;;13.50;2.50;;;6.90;96.30;;;;;;4975529;28;20190;-75
2021/11/08 09:33:18;;;;;;;5.93;2.00;;;6.80;96.30;;;;;;4957453;28;20182;-75
2021/11/08 09:35:48;;;;;;;11.73;2.67;;;6.80;96.30;;;;;;4975586;28;20163;-75
2021/11/08 09:38:15;;;;;;;8.23;1.93;;;6.90;96.30;;;;;;4958357;28;20170;-74
2021/11/08 09:40:42;;;;;;;12.07;2.80;;;6.80;96.30;;;;;;4975282;28;20825;-75
2021/11/08 09:43:10;;;;;;;9.00;2.50;;;6.80;96.30;;;;;;4974802;28;20417;-75
2021/11/08 09:45:36;;;;;;;9.63;1.90;;;6.80;96.30;;;;;;4975241;28;20425;-75
2021/11/08 09:48:03;;;;;;;16.00;2.60;;;6.90;96.30;;;;;;4975315;28;20401;-75
2021/11/08 09:50:31;;;;;;;6.63;2.10;;;6.90;96.30;;;;;;4975063;28;20432;-75
2021/11/08 09:52:59;;;;;;;5.07;1.87;;;6.80;96.30;;;;;;4974717;28;20441;-75
2021/11/08 09:55:25;;;;;;;8.40;1.50;;;6.90;96.30;;;;;;4975112;28;20429;-75
2021/11/08 09:57:55;;;;;;;6.13;1.27;;;6.80;96.30;;;;;;4975141;28;20414;-76
2021/11/08 10:00:22;;;;;;;8.20;1.73;;;6.90;96.30;;;;;;4974502;28;20201;-75
2021/11/08 10:03:00;;;;;;;7.23;1.63;;;6.90;96.30;;;;;;4974416;28;20762;-77
2021/11/08 10:05:32;;;;;;;6.10;1.33;;;6.90;96.30;;;;;;4974968;28;20402;-78
2021/11/08 10:07:59;;;;;;;13.07;2.07;;;6.90;96.30;;;;;;4975046;28;20433;-77
2021/11/08 10:10:26;;;;;;;5.83;1.30;;;6.80;96.30;;;;;;4957329;28;20422;-76
2021/11/08 10:13:14;;;;;;;5.87;1.37;;;6.70;96.30;;;;;;4974338;28;20418;-75
2021/11/08 10:15:48;;;;;;;5.73;1.53;;;6.70;96.30;;;;;;4974764;28;20414;-75
2021/11/08 10:18:15;;;;;;;6.10;1.30;;;6.50;96.30;;;;;;4974749;28;20394;-75
2021/11/08 10:20:43;;;;;;;5.53;1.50;;;6.50;96.30;;;;;;4974763;28;20453;-76
2021/11/08 10:23:12;;;;;;;6.47;1.60;;;6.60;96.30;;;;;;4974097;28;20414;-75
2021/11/08 10:25:39;;;;;;;7.77;1.70;;;6.60;96.30;;;;;;4974741;28;20825;-75
2021/11/08 10:28:15;;;;;;;7.43;1.63;;;6.70;96.30;;;;;;4974483;28;20420;-76
2021/11/08 10:30:42;;;;;;;4.43;1.40;;;6.70;96.30;;;;;;4974440;28;20429;-76
2021/11/08 10:33:13;;;;;;;11.10;3.30;;;7.00;96.30;;;;;;4973908;28;20410;-75
2021/11/08 10:35:44;;;;;;;9.93;1.47;;;7.00;96.30;;;;;;4974718;28;20745;-78
2021/11/08 10:38:16;;;;;;;9.23;2.00;;;6.90;96.30;;;;;;4974411;28;20394;-75
2021/11/08 10:40:45;;;;;;;5.13;1.33;;;6.80;96.30;;;;;;4973846;28;20457;-75
2021/11/08 10:43:12;;;;;;;12.00;2.33;;;6.80;96.30;;;;;;4973781;28;20405;-78
2021/11/08 10:45:47;;;;;;;4.40;1.43;;;6.70;96.30;;;;;;4974334;28;20409;-75
2021/11/08 10:48:19;;;;;;;7.00;1.63;;;6.70;96.30;;;;;;4974205;28;20402;-75
2021/11/08 10:50:46;;;;;;;9.20;2.03;;;6.80;96.30;;;;;;4974086;28;20440;-75
2021/11/08 10:53:12;;;;;;;4.40;1.50;;;6.90;96.30;;;;;;4956271;28;20417;-75
2021/11/08 10:55:38;;;;;;;6.63;1.60;;;6.90;96.30;;;;;;4956618;28;20418;-76
2021/11/08 10:58:12;;;;;;;6.00;1.93;;;6.90;96.30;;;;;;4974198;28;20936;-77
2021/11/08 11:00:57;;;;;;;5.17;1.80;;;6.90;96.30;;;;;;4975526;28;20224;-76
2021/11/08 11:03:24;;;;;;;7.97;2.03;;;7.00;96.30;;;;;;4973901;28;20401;-75
2021/11/08 11:06:02;;;;;;;6.03;2.03;;;7.30;96.30;;;;;;4973864;28;20410;-78
2021/11/08 11:08:29;;;;;;;9.63;2.30;;;7.40;96.30;;;;;;4973894;28;20932;-75
2021/11/08 11:11:04;;;;;;;6.40;1.87;;;7.30;96.30;;;;;;4973452;28;20433;-76
2021/11/08 11:13:31;;;;;;;11.40;1.80;;;7.30;96.30;;;;;;4975185;28;20471;-75
2021/11/08 11:16:02;;;;;;;5.60;1.60;;;7.30;96.30;;;;;;4974787;28;20441;-78
2021/11/08 11:18:33;;;;;;;4.87;1.40;;;7.40;96.30;;;;;;4973832;28;20398;-77
2021/11/08 11:23:47;;;;;;;3.47;1.53;;;7.50;96.30;;;;;;5783609;23;20494;-76
2021/11/08 11:26:13;;;;;;;5.73;1.67;;;7.60;96.30;;;;;;5012589;28;20396;-76
2021/11/08 11:28:41;;;;;;;5.43;1.60;;;7.70;96.30;;;;;;5024989;28;20423;-76
2021/11/08 11:31:20;;;;;;;5.93;1.70;;;7.60;96.30;;;;;;5030628;28;20442;-76
2021/11/08 11:33:47;;;;;;;6.43;1.80;;;7.40;96.30;;;;;;5037724;28;20391;-76
2021/11/08 11:36:15;;;;;;;6.33;2.20;;;7.30;96.30;;;;;;5038440;28;20431;-76
2021/11/08 11:38:44;;;;;;;14.47;1.80;;;7.30;96.30;;;;;;5037632;28;20442;-76
2021/11/08 11:41:14;;;;;;;3.20;1.30;;;7.20;96.30;;;;;;5040329;28;20470;-76
2021/11/08 11:43:45;;;;;;;8.83;1.90;;;7.10;96.30;;;;;;5033152;28;20411;-76
2021/11/08 11:46:22;;;;;;;5.37;1.70;;;6.90;96.30;;;;;;5033175;28;20415;-77
2021/11/08 11:48:49;;;;;;;5.13;1.73;;;6.80;96.30;;;;;;5032690;28;20414;-76
2021/11/08 11:51:28;;;;;;;3.40;1.53;;;6.60;96.30;;;;;;5031305;28;20427;-77
2021/11/08 11:53:56;;;;;;;3.30;1.53;;;6.40;96.30;;;;;;5032038;28;20981;-77
2021/11/08 11:56:23;;;;;;;5.33;1.77;;;6.40;96.30;;;;;;5032082;28;20418;-76
2021/11/08 11:58:50;;;;;;;6.93;1.80;;;6.30;96.30;;;;;;5032341;28;20910;-77
2021/11/08 12:01:19;;;;;;;13.57;1.47;;;6.20;96.30;;;;;;5031530;28;20439;-77
2021/11/08 12:03:46;;;;;;;8.10;1.73;;;6.30;96.30;;;;;;5032223;28;20411;-77
2021/11/08 12:06:21;;;;;;;11.40;2.50;;;6.40;96.30;;;;;;5030700;28;20446;-77
2021/11/08 12:08:47;;;;;;;5.53;1.63;;;6.40;96.30;;;;;;5031912;28;20391;-77
2021/11/08 12:11:14;;;;;;;5.20;1.90;;;6.60;96.30;;;;;;5038418;28;20463;-76
2021/11/08 12:13:52;;;;;;;6.37;1.70;;;6.60;96.30;;;;;;5057644;28;20164;-77
2021/11/08 12:16:20;;;;;;;6.43;1.90;;;6.80;96.30;;;;;;5057033;28;20403;-75
2021/11/08 12:18:47;;;;;;;7.23;2.10;;;6.70;96.30;;;;;;5039271;28;20419;-77
2021/11/08 12:21:26;;;;;;;9.73;2.00;;;6.60;96.30;;;;;;5032144;28;20549;-76
2021/11/08 12:23:53;;;;;;;10.07;2.10;;;6.60;96.30;;;;;;5033099;28;20520;-76
2021/11/08 12:26:26;;;;;;;7.93;2.20;;;6.80;96.30;;;;;;5034358;28;20537;-77
2021/11/08 12:29:02;;;;;;;7.83;1.80;;;6.80;96.30;;;;;;5018897;28;20420;-76
2021/11/08 12:31:29;;;;;;;6.33;1.77;;;6.90;96.30;;;;;;5014984;28;20442;-77
2021/11/08 12:33:59;;;;;;;7.13;2.00;;;6.90;96.30;;;;;;5014425;28;20486;-77
2021/11/08 12:36:25;;;;;;;10.10;2.20;;;7.00;96.30;;;;;;5015579;28;20407;-76
2021/11/08 12:39:12;;;;;;;7.80;1.50;;;7.10;96.30;;;;;;5015504;28;20403;-76
2021/11/08 12:41:46;;;;;;;9.00;2.20;;;7.00;96.30;;;;;;5014957;28;20431;-76
2021/11/08 12:44:13;;;;;;;3.50;1.43;;;7.10;96.30;;;;;;5014255;28;20416;-76
2021/11/08 12:46:52;;;;;;;8.30;1.70;;;7.10;96.30;;;;;;5014243;28;20486;-76
2021/11/08 12:49:23;;;;;;;6.80;1.83;;;7.10;96.30;;;;;;5015436;28;20818;-76
2021/11/08 12:52:05;;;;;;;9.83;2.17;;;7.00;96.30;;;;;;5014564;28;20533;-77
2021/11/08 12:55:00;;;;;;;6.10;1.80;;;7.10;96.30;;;;;;5015398;28;20411;-76
2021/11/08 12:57:28;;;;;;;6.70;1.57;;;7.40;96.30;;;;;;5015290;28;20862;-77
2021/11/08 13:00:00;;;;;;;5.83;1.60;;;7.50;96.30;;;;;;5013799;28;20451;-76
2021/11/08 13:02:28;;;;;;;7.00;2.10;;;7.50;96.30;;;;;;5013496;28;20522;-76
2021/11/08 13:04:57;;;;;;;6.37;1.60;;;7.40;96.30;;;;;;5015217;28;20453;-77
2021/11/08 13:07:26;;;;;;;4.37;1.20;;;7.40;96.30;;;;;;5013812;28;20404;-76
2021/11/08 13:09:54;;;;;;;4.50;1.60;;;7.30;96.30;;;;;;5014932;28;20412;-76
2021/11/08 13:12:33;;;;;;;3.97;1.63;;;7.20;96.30;;;;;;5012668;28;20435;-76
2021/11/08 13:15:31;;;;;;;8.00;1.83;;;7.00;96.30;;;;;;5014940;28;20404;-77
2021/11/08 13:18:03;;;;;;;6.00;1.63;;;6.90;96.30;;;;;;5012120;28;20778;-76
2021/11/08 13:20:35;;;;;;;5.60;1.27;;;6.80;96.30;;;;;;5014683;28;20440;-76
2021/11/08 13:23:08;;;;;;;3.40;1.27;;;6.70;96.30;;;;;;5012909;28;20420;-76
2021/11/08 13:25:40;;;;;;;4.67;1.70;;;6.70;96.30;;;;;;5014702;28;20404;-76
2021/11/08 13:28:08;;;;;;;8.83;2.10;;;6.60;96.30;;;;;;5023813;28;20404;-76
2021/11/08 13:30:43;;;;;;;1.90;1.20;;;6.60;96.30;;;;;;5034344;28;20403;-76
2021/11/08 13:33:17;;;;;;;4.03;1.47;;;6.60;96.30;;;;;;5033892;28;20406;-76
2021/11/08 13:35:44;;;;;;;4.33;1.33;;;6.50;96.30;;;;;;5033667;28;20430;-76
2021/11/08 13:38:31;;;;;;;6.93;1.63;;;6.50;96.30;;;;;;5034203;28;20879;-76
2021/11/08 13:41:07;;;;;;;5.80;1.47;;;6.60;96.30;;;;;;5033357;28;20450;-76
2021/11/08 13:43:42;;;;;;;6.27;1.57;;;6.60;96.30;;;;;;5033874;28;20406;-76
2021/11/08 13:46:11;;;;;;;7.37;1.67;;;6.50;96.30;;;;;;5034439;28;20394;-76
2021/11/08 13:48:48;;;;;;;5.40;1.10;;;6.60;96.30;;;;;;5034235;28;20898;-76
2021/11/08 13:51:33;;;;;;;3.20;1.20;;;6.50;96.30;;;;;;5033324;28;20786;-76
2021/11/08 13:54:16;;;;;;;5.47;1.30;;;6.60;96.30;;;;;;5033942;28;21111;-76
2021/11/08 13:56:46;;;;;;;5.40;1.80;;;6.50;96.30;;;;;;5033940;28;20391;-76
2021/11/08 13:59:23;;;;;;;5.40;1.50;;;6.50;96.30;;;;;;5033864;28;20973;-76
2021/11/08 14:01:53;;;;;;;9.73;2.70;;;6.50;96.30;;;;;;5033252;28;20430;-76
2021/11/08 14:04:18;;;;;;;6.20;1.10;;;6.40;96.30;;;;;;5033814;28;20411;-76
2021/11/08 14:06:46;;;;;;;7.73;1.20;;;6.40;96.30;;;;;;5033762;28;20409;-76
2021/11/08 14:09:20;;;;;;;3.63;1.20;;;6.30;96.30;;;;;;5033770;28;20176;-76
2021/11/08 14:11:46;;;;;;;6.30;1.40;;;6.30;96.30;;;;;;5033053;28;20431;-76
2021/11/08 14:14:20;;;;;;;4.10;1.23;;;6.30;96.30;;;;;;5033688;28;20771;-76
2021/11/08 14:16:48;;;;;;;7.40;1.70;;;6.30;96.30;;;;;;5033380;28;20415;-76
2021/11/08 14:19:17;;;;;;;8.60;1.30;;;6.30;96.30;;;;;;5033320;28;20447;-77
2021/11/08 14:21:45;;;;;;;4.47;1.63;;;6.40;96.30;;;;;;5033155;28;20788;-76
2021/11/08 14:24:13;;;;;;;6.63;1.20;;;6.50;96.30;;;;;;5031723;28;20433;-76
2021/11/08 14:26:48;;;;;;;3.87;1.40;;;6.60;96.30;;;;;;5033385;28;20407;-76
2021/11/08 14:29:19;;;;;;;8.17;1.73;;;6.70;96.30;;;;;;5014845;28;20895;-76
2021/11/08 14:31:51;;;;;;;6.33;1.50;;;6.80;96.30;;;;;;5012885;28;20447;-77
2021/11/08 14:34:20;;;;;;;16.93;1.90;;;6.80;96.30;;;;;;5013464;28;20487;-76
2021/11/08 14:36:49;;;;;;;4.77;1.40;;;6.60;96.30;;;;;;5013441;28;20779;-76
2021/11/08 14:39:22;;;;;;;2.80;1.40;;;6.50;96.30;;;;;;5013262;28;20838;-76
2021/11/08 14:42:01;;;;;;;4.93;1.47;;;6.30;96.30;;;;;;5012680;28;20490;-76
2021/11/08 14:44:43;;;;;;;3.53;1.63;;;6.20;96.30;;;;;;5013349;28;20470;-76
2021/11/08 14:47:24;;;;;;;7.40;1.43;;;6.00;96.30;;;;;;5012433;28;20419;-76
2021/11/08 14:50:02;;;;;;;7.93;2.03;;;5.90;96.30;;;;;;5011814;28;20431;-76
2021/11/08 14:52:51;;;;;;;5.13;1.50;;;5.90;96.30;;;;;;5012625;28;20434;-76
2021/11/08 14:55:24;;;;;;;4.10;1.23;;;5.90;96.30;;;;;;5011094;28;20426;-76
2021/11/08 14:57:52;;;;;;;6.10;1.70;;;6.00;96.30;;;;;;5013033;28;20438;-76
2021/11/08 15:00:28;;;;;;;5.73;1.87;;;5.90;96.30;;;;;;5012768;28;20852;-76
2021/11/08 15:03:02;;;;;;;4.13;1.50;;;5.90;96.30;;;;;;5012385;28;20411;-76
2021/11/08 15:05:28;;;;;;;5.07;2.10;;;5.90;96.30;;;;;;5013040;28;20748;-76
2021/11/08 15:08:09;;;;;;;3.30;1.57;;;5.90;96.30;;;;;;5012911;28;20412;-76
2021/11/08 15:10:37;;;;;;;6.30;1.73;;;5.90;96.30;;;;;;5011514;28;20206;-76
2021/11/08 15:13:06;;;;;;;2.13;1.10;;;5.90;96.30;;;;;;5012267;28;20896;-76
2021/11/08 15:15:36;;;;;;;4.80;1.37;;;5.90;96.30;;;;;;5011599;28;20970;-76
2021/11/08 15:18:11;;;;;;;8.83;1.97;;;5.90;96.30;;;;;;5012588;28;20755;-76
2021/11/08 15:20:45;;;;;;;4.43;1.10;;;5.90;96.30;;;;;;5012520;28;20489;-76
2021/11/08 15:23:22;;;;;;;8.80;1.80;;;5.90;96.30;;;;;;5012159;28;20450;-75
2021/11/08 15:25:53;;;;;;;7.10;1.40;;;5.80;96.30;;;;;;5012591;28;20802;-76
2021/11/08 15:28:25;;;;;;;3.17;1.10;;;5.70;96.30;;;;;;5022152;28;20419;-76
2021/11/08 15:31:00;;;;;;;6.10;1.57;;;5.60;96.30;;;;;;5032153;28;20442;-76
2021/11/08 15:33:49;;;;;;;5.57;1.60;;;5.50;96.30;;;;;;5032165;28;20818;-76
2021/11/08 15:36:18;;;;;;;3.50;1.10;;;5.50;96.30;;;;;;5032068;28;20415;-76
2021/11/08 15:38:44;;;;;;;4.47;1.63;;;5.40;96.30;;;;;;5032102;28;20799;-76
2021/11/08 15:41:10;;;;;;;6.87;1.30;;;5.30;96.30;;;;;;5029899;28;20459;-76
2021/11/08 15:43:36;;;;;;;5.53;1.87;;;5.20;96.30;;;;;;5032040;28;20210;-76
2021/11/08 15:46:04;;;;;;;11.07;1.53;;;5.00;96.30;;;;;;5031968;28;20477;-76
2021/11/08 15:48:32;;;;;;;7.43;1.30;;;4.90;96.30;;;;;;5031892;28;20746;-76
2021/11/08 15:51:00;;;;;;;3.13;1.57;;;4.90;96.30;;;;;;5031383;28;20427;-76
2021/11/08 15:53:27;;;;;;;5.03;1.70;;;4.90;96.30;;;;;;5031931;28;20901;-76
2021/11/08 15:55:54;;;;;;;4.43;1.17;;;4.90;96.30;;;;;;5031896;28;20415;-76
2021/11/08 15:58:19;;;;;;;6.37;1.50;;;5.00;96.30;;;;;;5033759;28;20809;-76
2021/11/08 16:00:47;;;;;;;3.70;1.50;;;5.00;96.30;;;;;;5035845;28;20465;-76
2021/11/08 16:03:13;;;;;;;4.50;1.33;;;5.00;96.30;;;;;;5034219;28;20172;-76
2021/11/08 16:05:40;;;;;;;3.63;1.40;;;5.00;96.30;;;;;;5035803;28;20422;-76
2021/11/08 16:08:06;;;;;;;2.77;1.60;;;5.00;96.30;;;;;;5035959;28;20433;-76
2021/11/08 16:10:32;;;;;;;5.23;1.83;;;5.00;96.30;;;;;;5035769;28;20918;-76
2021/11/08 16:12:58;;;;;;;2.43;1.30;;;5.10;96.30;;;;;;5035144;28;20403;-76
2021/11/08 16:15:24;;;;;;;4.47;1.87;;;5.10;96.30;;;;;;5035755;28;20180;-76
2021/11/08 16:17:51;;;;;;;2.90;1.63;;;5.10;96.30;;;;;;5035672;28;20183;-76
2021/11/08 16:20:19;;;;;;;2.50;1.50;;;5.10;96.30;;;;;;5035326;28;20481;-76
2021/11/08 16:22:46;;;;;;;4.90;1.30;;;5.00;96.30;;;;;;5035070;28;20410;-76
2021/11/08 16:25:12;;;;;;;5.07;1.73;;;5.10;96.30;;;;;;5035332;28;20922;-76
2021/11/08 16:27:38;;;;;;;3.60;1.40;;;5.00;96.30;;;;;;5035513;28;20421;-76
2021/11/08 16:30:04;;;;;;;8.57;2.43;;;5.00;96.30;;;;;;5034138;28;20204;-76
2021/11/08 16:33:01;;;;;;;4.13;1.63;;;5.00;96.30;;;;;;5033534;28;20467;-76
2021/11/08 16:35:36;;;;;;;4.57;1.60;;;5.00;96.30;;;;;;5034371;28;20489;-76
2021/11/08 16:38:05;;;;;;;4.00;1.57;;;5.10;96.30;;;;;;5036325;28;20404;-76
2021/11/08 16:40:33;;;;;;;5.63;1.70;;;5.10;96.30;;;;;;5035653;28;20887;-76
2021/11/08 16:43:00;;;;;;;5.20;2.13;;;5.00;96.30;;;;;;5035355;28;20410;-76
2021/11/08 16:45:29;;;;;;;3.33;1.70;;;5.00;96.30;;;;;;5035232;28;20949;-77
2021/11/08 16:47:57;;;;;;;7.93;1.83;;;5.00;96.30;;;;;;5033865;28;20415;-77
2021/11/08 16:50:25;;;;;;;5.20;1.57;;;5.00;96.30;;;;;;5034908;28;20419;-77
2021/11/08 16:52:52;;;;;;;2.37;1.40;;;5.00;96.30;;;;;;5034460;28;20415;-76
2021/11/08 16:55:21;;;;;;;4.53;1.37;;;5.00;96.30;;;;;;5033421;28;20444;-77
2021/11/08 16:57:49;;;;;;;3.10;1.37;;;5.00;96.30;;;;;;5033508;28;20930;-76
2021/11/08 17:00:16;;;;;;;5.13;1.77;;;4.90;96.30;;;;;;5033576;28;20546;-77
2021/11/08 17:02:45;;;;;;;6.40;1.77;;;4.90;96.30;;;;;;5032910;28;20435;-78
2021/11/08 17:05:12;;;;;;;6.80;1.63;;;4.90;96.30;;;;;;5034844;28;20407;-79
2021/11/08 17:07:40;;;;;;;2.83;1.20;;;4.90;96.30;;;;;;5034890;28;20403;-77
2021/11/08 17:15:19;;;;;;;4.83;2.50;;;4.90;96.30;;;;;;5018027;28;20430;-78
2021/11/08 17:17:44;;;;;;;1.97;1.20;;;4.90;96.30;;;;;;5013451;28;20431;-79
2021/11/08 17:20:12;;;;;;;2.70;1.20;;;4.90;96.30;;;;;;5016421;28;20698;-78
2021/11/08 17:22:39;;;;;;;4.27;1.53;;;4.90;96.30;;;;;;5014666;28;20185;-78
2021/11/08 17:25:06;;;;;;;6.33;2.10;;;4.90;96.30;;;;;;5014212;28;20520;-79
2021/11/08 17:27:32;;;;;;;5.90;1.27;;;4.90;96.30;;;;;;5014498;28;20416;-78
2021/11/08 17:29:59;;;;;;;3.27;1.83;;;5.00;96.30;;;;;;5014086;28;20415;-79
2021/11/08 17:32:25;;;;;;;2.50;1.40;;;5.00;96.30;;;;;;5014023;28;20447;-78
2021/11/08 17:34:51;;;;;;;5.53;1.90;;;5.00;96.30;;;;;;5012917;28;20415;-78
2021/11/08 17:37:17;;;;;;;6.33;2.07;;;4.90;96.30;;;;;;5012816;28;20426;-79
2021/11/08 17:39:43;;;;;;;3.57;1.73;;;4.90;96.30;;;;;;5012832;28;20452;-78
2021/11/08 17:42:09;;;;;;;4.07;1.73;;;4.80;96.30;;;;;;5002257;28;20193;-78
2021/11/08 17:44:35;;;;;;;4.20;1.40;;;4.80;96.30;;;;;;5000925;28;20416;-77
2021/11/08 17:47:00;;;;;;;4.00;1.70;;;4.60;96.30;;;;;;5013665;28;20188;-78
2021/11/08 17:49:26;;;;;;;4.90;1.50;;;4.50;96.30;;;;;;5013949;28;20173;-78
2021/11/08 17:51:52;;;;;;;5.13;1.80;;;4.50;96.30;;;;;;5013024;28;20427;-79
2021/11/08 17:54:18;;;;;;;4.10;1.63;;;4.30;96.30;;;;;;5013809;28;20169;-79
2021/11/08 17:56:44;;;;;;;3.40;1.70;;;4.20;96.30;;;;;;5013740;28;20170;-78
2021/11/08 17:59:10;;;;;;;5.97;1.77;;;4.20;96.30;;;;;;5013368;28;20416;-78
2021/11/08 18:01:35;;;;;;;4.03;1.90;;;4.10;96.30;;;;;;5022562;28;20431;-77
2021/11/08 18:04:02;;;;;;;4.40;1.93;;;4.10;96.30;;;;;;5013660;28;20177;-78
2021/11/08 18:06:28;;;;;;;3.20;2.00;;;4.10;96.30;;;;;;5007516;28;20208;-78
2021/11/08 18:08:54;;;;;;;4.50;1.70;;;4.10;96.30;;;;;;4992783;28;20452;-79
2021/11/08 18:11:20;;;;;;;6.00;2.40;;;4.10;96.30;;;;;;4992654;28;20194;-78
2021/11/08 18:13:46;;;;;;;6.60;2.43;;;4.10;96.30;;;;;;4992911;28;20511;-79
2021/11/08 18:16:12;;;;;;;7.67;2.50;;;4.20;96.30;;;;;;5003304;28;20514;-78
2021/11/08 18:18:39;;;;;;;3.23;1.87;;;4.30;96.30;;;;;;5013516;28;20654;-78
2021/11/08 18:26:19;;;;;;;3.13;2.00;;;4.50;96.30;;;;;;5007758;28;20416;-78
2021/11/08 18:28:46;;;;;;;5.60;1.97;;;4.60;96.30;;;;;;5013401;28;20149;-76
2021/11/08 18:31:14;;;;;;;5.70;2.10;;;4.60;96.30;;;;;;5012913;28;20927;-78
2021/11/08 18:33:40;;;;;;;10.23;2.80;;;4.70;96.30;;;;;;5013102;28;20396;-78
2021/11/08 18:36:11;;;;;;;1.90;1.40;;;4.70;96.30;;;;;;5012772;28;20919;-77
2021/11/08 18:38:37;;;;;;;5.33;2.10;;;4.80;96.30;;;;;;5012072;28;20419;-78
2021/11/08 18:41:03;;;;;;;1.80;1.40;;;4.80;96.30;;;;;;5012717;28;20459;-77